Time;durP1;ratioP1;P1;durP2;ratioP2;P2;SDS_P1;SDS_P2;PMS_P1;PMS_P2;Temp;Humidity;BMP_temperature;BMP_pressure;BME280_temperature;BME280_humidity;BME280_pressure;Samples;Min_cycle;Max_cycle;Signal;HPM_P1;HPM_P2
2021/10/02 00:31:21;;;;;;;7.37;6.67;;;14.70;33.60;;;;;;5058119;28;20825;-66
2021/10/02 00:47:05;;;;;;;5.23;4.73;;;14.70;33.20;;;;;;5059047;28;20408;-65
2021/10/02 00:49:31;;;;;;;6.10;5.63;;;14.60;33.50;;;;;;5057935;28;20444;-67
2021/10/02 00:51:57;;;;;;;5.70;5.10;;;14.60;33.70;;;;;;5057995;28;20424;-67
2021/10/02 00:54:23;;;;;;;7.53;5.67;;;14.60;33.90;;;;;;5058280;28;20463;-66
2021/10/02 00:56:48;;;;;;;5.87;4.40;;;14.60;33.60;;;;;;5057806;28;20188;-66
2021/10/02 00:59:14;;;;;;;13.40;6.87;;;14.60;33.70;;;;;;5058389;28;20190;-65
2021/10/02 01:01:54;;;;;;;8.13;5.80;;;14.60;33.50;;;;;;5057269;28;20647;-67
2021/10/02 01:04:45;;;;;;;11.93;5.77;;;14.60;34.00;;;;;;5057727;28;20216;-67
2021/10/02 01:07:44;;;;;;;6.90;4.90;;;14.50;33.90;;;;;;5058414;28;20409;-66
2021/10/02 01:10:34;;;;;;;5.60;5.10;;;14.50;34.00;;;;;;5058112;28;20417;-67
2021/10/02 01:13:09;;;;;;;9.13;6.03;;;14.50;33.90;;;;;;5056803;28;20486;-67
2021/10/02 01:16:09;;;;;;;5.93;5.33;;;14.40;34.10;;;;;;5056889;28;20420;-67
2021/10/02 01:19:04;;;;;;;7.27;6.57;;;14.30;34.80;;;;;;5057688;28;20423;-63
2021/10/02 01:21:48;;;;;;;5.70;4.70;;;14.30;34.80;;;;;;5057716;28;20441;-66
2021/10/02 01:24:35;;;;;;;5.73;5.23;;;14.30;34.80;;;;;;5057444;28;20463;-67
2021/10/02 01:27:38;;;;;;;5.87;5.27;;;14.20;34.70;;;;;;5057035;28;20412;-64
2021/10/02 01:30:09;;;;;;;5.63;5.13;;;14.20;34.70;;;;;;5055973;28;20416;-67
2021/10/02 01:32:46;;;;;;;6.13;5.63;;;14.20;34.10;;;;;;5057273;28;20417;-66
2021/10/02 01:35:25;;;;;;;4.80;4.27;;;14.20;34.70;;;;;;5057104;28;20413;-67
2021/10/02 01:47:08;;;;;;;8.47;5.27;;;14.20;34.70;;;;;;5057484;28;20889;-68
2021/10/02 01:48:59;;;;;;;9.20;5.97;;;13.80;37.00;;;;;;5057029;28;20428;-67
2021/10/02 01:51:25;;;;;;;5.60;5.10;;;13.80;37.30;;;;;;5057624;28;20412;-67
2021/10/02 01:53:54;;;;;;;7.00;6.03;;;13.80;37.50;;;;;;5057711;28;20205;-65
2021/10/02 01:56:21;;;;;;;6.10;5.10;;;13.80;37.60;;;;;;5056047;28;20428;-66
2021/10/02 01:58:48;;;;;;;6.70;5.90;;;13.70;37.70;;;;;;5057175;28;20427;-63
2021/10/02 02:01:14;;;;;;;5.53;5.03;;;13.80;37.70;;;;;;5057343;28;20418;-67
2021/10/02 02:03:44;;;;;;;12.23;6.17;;;13.80;38.00;;;;;;5055927;28;20522;-66
2021/10/02 02:06:11;;;;;;;6.17;5.53;;;13.80;37.60;;;;;;5056913;28;20424;-66
2021/10/02 02:08:42;;;;;;;7.40;5.53;;;13.90;37.60;;;;;;5056119;28;20428;-66
2021/10/02 02:11:09;;;;;;;6.20;5.67;;;13.80;37.70;;;;;;5057556;28;20416;-66
2021/10/02 02:13:37;;;;;;;4.90;4.50;;;13.80;37.90;;;;;;5055425;28;20440;-67
2021/10/02 02:16:04;;;;;;;6.93;6.23;;;13.80;38.20;;;;;;5056767;28;20944;-65
2021/10/02 02:18:30;;;;;;;6.70;6.10;;;13.70;38.40;;;;;;5057678;28;20427;-66
2021/10/02 02:21:02;;;;;;;6.10;5.50;;;13.70;38.20;;;;;;5056401;28;20425;-67
2021/10/02 02:23:28;;;;;;;7.67;5.30;;;13.80;38.20;;;;;;5056129;28;20631;-66
2021/10/02 02:26:03;;;;;;;5.87;5.00;;;13.80;38.00;;;;;;5056552;28;20925;-66
2021/10/02 02:28:31;;;;;;;7.20;5.20;;;13.80;37.70;;;;;;5057275;28;20174;-65
2021/10/02 02:30:56;;;;;;;5.60;5.10;;;13.80;37.60;;;;;;5056957;28;20416;-66
2021/10/02 02:33:22;;;;;;;8.63;5.30;;;13.90;38.10;;;;;;5057110;28;20471;-66
2021/10/02 02:35:49;;;;;;;7.87;4.97;;;13.80;38.20;;;;;;5057340;28;20496;-67
2021/10/02 02:38:14;;;;;;;7.00;5.27;;;13.90;37.90;;;;;;5057486;28;20421;-65
2021/10/02 02:40:40;;;;;;;9.20;5.23;;;13.80;38.30;;;;;;5055851;28;20944;-65
2021/10/02 02:43:08;;;;;;;8.90;5.00;;;13.70;38.40;;;;;;5057108;28;20219;-66
2021/10/02 02:45:33;;;;;;;5.47;4.73;;;13.70;39.40;;;;;;5057604;28;20170;-66
2021/10/02 02:48:12;;;;;;;7.13;4.60;;;13.70;39.50;;;;;;5057519;28;20469;-67
2021/10/02 02:50:59;;;;;;;7.40;5.40;;;13.70;39.50;;;;;;5056352;28;20178;-67
2021/10/02 02:53:41;;;;;;;7.27;6.23;;;13.70;39.50;;;;;;5056012;28;20431;-65
2021/10/02 02:56:16;;;;;;;5.30;4.70;;;13.70;39.30;;;;;;5056840;28;20413;-66
2021/10/02 02:58:44;;;;;;;5.63;5.13;;;13.60;39.40;;;;;;5057129;28;20816;-66
2021/10/02 03:01:12;;;;;;;6.33;5.63;;;13.60;39.40;;;;;;5058573;28;20508;-67
2021/10/02 03:03:39;;;;;;;6.13;5.20;;;13.50;39.30;;;;;;5058324;28;20467;-65
2021/10/02 03:06:10;;;;;;;5.57;5.10;;;13.50;39.30;;;;;;5059972;28;20420;-66
2021/10/02 03:08:41;;;;;;;8.00;5.37;;;13.50;39.50;;;;;;5060513;28;20420;-65
2021/10/02 03:11:07;;;;;;;5.13;4.63;;;13.50;39.70;;;;;;5060093;28;20421;-67
2021/10/02 03:13:38;;;;;;;10.13;5.73;;;13.50;39.60;;;;;;5060208;28;20510;-66
2021/10/02 03:16:09;;;;;;;4.77;4.37;;;13.40;39.20;;;;;;5060985;28;20435;-66
2021/10/02 03:18:38;;;;;;;5.97;4.20;;;13.40;39.20;;;;;;5060682;28;20440;-67
2021/10/02 03:21:05;;;;;;;5.40;4.90;;;13.40;39.20;;;;;;5060739;28;20424;-67
2021/10/02 03:23:31;;;;;;;4.83;4.40;;;13.30;39.10;;;;;;5060401;28;20492;-66
2021/10/02 03:25:57;;;;;;;4.90;4.40;;;13.20;39.70;;;;;;5041912;28;20428;-66
2021/10/02 03:28:24;;;;;;;5.40;4.50;;;13.20;40.20;;;;;;5060915;28;20412;-64
2021/10/02 03:30:50;;;;;;;5.63;5.07;;;13.20;40.30;;;;;;5059572;28;20413;-66
2021/10/02 03:33:16;;;;;;;4.13;3.73;;;13.20;40.30;;;;;;5058428;28;20455;-66
2021/10/02 03:35:42;;;;;;;5.27;4.77;;;13.20;40.40;;;;;;5058897;28;20422;-66
2021/10/02 03:38:08;;;;;;;7.23;5.10;;;13.20;40.40;;;;;;5059566;28;20420;-67
2021/10/02 03:40:34;;;;;;;5.23;4.60;;;;;;;;;;5059934;28;20450;-65
2021/10/02 03:43:00;;;;;;;5.70;5.17;;;13.10;39.60;;;;;;5060020;28;20597;-66
2021/10/02 03:45:29;;;;;;;5.93;4.83;;;13.20;40.20;;;;;;5058769;28;20433;-66
2021/10/02 03:47:55;;;;;;;5.10;4.53;;;13.00;40.50;;;;;;5059068;28;20200;-67
2021/10/02 03:50:21;;;;;;;5.80;4.83;;;13.00;40.80;;;;;;5058179;28;20475;-67
2021/10/02 03:52:47;;;;;;;5.30;4.80;;;12.90;41.80;;;;;;5058078;28;20922;-67
2021/10/02 03:55:15;;;;;;;7.37;5.73;;;13.00;40.80;;;;;;5059176;28;20423;-65
2021/10/02 03:57:41;;;;;;;5.73;4.60;;;13.10;40.40;;;;;;5060031;28;20176;-67
2021/10/02 04:00:10;;;;;;;8.27;5.73;;;13.00;40.20;;;;;;5058361;28;20819;-66
2021/10/02 04:02:37;;;;;;;7.50;5.03;;;13.10;40.20;;;;;;5059389;28;20432;-66
2021/10/02 04:05:03;;;;;;;8.27;5.50;;;13.00;40.10;;;;;;5058429;28;20432;-68
2021/10/02 04:07:29;;;;;;;5.57;3.80;;;13.10;40.10;;;;;;5059000;28;20432;-66
2021/10/02 04:09:54;;;;;;;6.10;5.20;;;13.00;40.00;;;;;;5059040;28;20412;-65
2021/10/02 04:12:20;;;;;;;6.10;5.30;;;13.00;40.60;;;;;;5059775;28;20176;-64
2021/10/02 04:14:50;;;;;;;5.90;4.53;;;13.10;40.10;;;;;;5058977;28;20236;-67
2021/10/02 04:17:16;;;;;;;9.10;4.80;;;13.10;39.50;;;;;;5057752;28;20182;-66
2021/10/02 04:19:42;;;;;;;6.13;5.30;;;13.10;39.60;;;;;;5057341;28;20989;-65
2021/10/02 04:22:09;;;;;;;7.23;5.00;;;13.10;41.50;;;;;;5059012;28;20440;-65
2021/10/02 04:24:35;;;;;;;4.57;4.17;;;13.10;38.30;;;;;;5058899;28;20468;-66
2021/10/02 04:27:00;;;;;;;5.00;4.57;;;13.10;39.00;;;;;;5058422;28;21005;-65
2021/10/02 04:29:27;;;;;;;6.23;4.53;;;13.00;39.40;;;;;;5056743;28;20696;-67
2021/10/02 04:31:53;;;;;;;8.40;4.40;;;13.00;39.30;;;;;;5053225;28;20271;-67
2021/10/02 04:34:19;;;;;;;8.60;6.53;;;13.10;38.90;;;;;;5054240;28;20477;-66
2021/10/02 04:36:44;;;;;;;5.13;4.73;;;13.00;38.90;;;;;;5054313;28;20222;-66
2021/10/02 04:39:10;;;;;;;5.57;5.00;;;13.10;39.30;;;;;;5054020;28;20230;-66
2021/10/02 04:41:35;;;;;;;6.00;5.40;;;13.10;39.60;;;;;;5053511;28;20622;-67
2021/10/02 04:44:01;;;;;;;5.87;5.37;;;13.10;39.10;;;;;;5052344;28;20311;-65
2021/10/02 04:46:26;;;;;;;6.23;4.60;;;13.10;39.10;;;;;;5053763;28;20174;-65
2021/10/02 04:48:52;;;;;;;6.30;5.33;;;13.00;39.60;;;;;;5053781;28;20248;-67
2021/10/02 04:51:18;;;;;;;6.50;5.80;;;12.90;39.60;;;;;;5053453;28;20221;-65
2021/10/02 04:53:43;;;;;;;5.53;5.03;;;12.90;40.30;;;;;;5053509;28;20289;-65
2021/10/02 04:56:12;;;;;;;6.30;4.83;;;13.00;39.70;;;;;;5053763;28;20182;-65
2021/10/02 04:58:38;;;;;;;5.17;4.67;;;13.00;39.80;;;;;;5053615;28;20193;-66
2021/10/02 05:01:06;;;;;;;6.60;5.07;;;13.00;39.70;;;;;;5053571;28;20914;-67
2021/10/02 05:03:33;;;;;;;8.40;5.17;;;13.00;39.10;;;;;;5053481;28;20556;-66
2021/10/02 05:05:58;;;;;;;6.00;5.20;;;13.00;39.40;;;;;;5053626;28;20416;-66
2021/10/02 05:08:24;;;;;;;5.67;5.00;;;13.10;39.30;;;;;;5053697;28;20921;-66
2021/10/02 05:10:49;;;;;;;5.57;4.87;;;13.00;39.00;;;;;;5053698;28;20175;-66
2021/10/02 05:13:15;;;;;;;6.70;5.90;;;13.00;39.50;;;;;;5053418;28;20668;-66
2021/10/02 05:15:41;;;;;;;6.63;6.00;;;13.00;40.20;;;;;;5053138;28;20649;-66
2021/10/02 05:18:07;;;;;;;5.90;5.03;;;13.00;40.10;;;;;;5053420;28;20208;-66
2021/10/02 05:20:33;;;;;;;5.30;4.80;;;13.00;40.00;;;;;;5052980;28;20933;-65
2021/10/02 05:22:58;;;;;;;7.03;5.90;;;13.00;39.90;;;;;;5051059;28;20461;-64
2021/10/02 05:25:24;;;;;;;6.67;6.07;;;12.90;40.10;;;;;;5052864;28;20483;-66
2021/10/02 05:27:50;;;;;;;6.73;5.37;;;12.90;40.40;;;;;;5052932;28;20213;-66
2021/10/02 05:30:16;;;;;;;7.97;5.73;;;12.90;40.10;;;;;;5051308;28;20417;-66
2021/10/02 05:32:42;;;;;;;7.57;4.70;;;12.90;39.90;;;;;;5052602;28;20172;-65
2021/10/02 05:35:08;;;;;;;9.30;5.27;;;12.80;40.20;;;;;;5032546;22;20503;-66
2021/10/02 05:37:34;;;;;;;5.60;5.10;;;12.80;40.50;;;;;;5010461;28;20183;-67
2021/10/02 05:40:00;;;;;;;5.90;5.40;;;12.70;40.40;;;;;;5011219;28;20489;-66
2021/10/02 05:42:25;;;;;;;7.77;5.63;;;12.70;40.90;;;;;;5010070;28;20844;-66
2021/10/02 05:44:51;;;;;;;5.77;5.20;;;12.60;40.90;;;;;;5011388;28;20209;-66
2021/10/02 05:47:17;;;;;;;6.37;5.73;;;12.60;41.30;;;;;;5010074;28;20200;-67
2021/10/02 05:49:42;;;;;;;6.83;4.70;;;12.60;41.90;;;;;;5011046;28;20266;-66
2021/10/02 05:52:12;;;;;;;6.80;5.50;;;12.70;41.90;;;;;;5011334;28;20175;-66
2021/10/02 05:54:38;;;;;;;6.43;5.53;;;12.80;41.70;;;;;;5011181;28;20672;-66
2021/10/02 05:57:03;;;;;;;5.50;4.83;;;12.90;41.50;;;;;;5011291;28;20503;-66
2021/10/02 05:59:29;;;;;;;6.50;4.90;;;12.90;41.30;;;;;;5011039;28;20414;-66
2021/10/02 06:01:55;;;;;;;4.43;4.10;;;13.00;40.60;;;;;;5011274;28;20171;-67
2021/10/02 06:04:20;;;;;;;5.23;4.30;;;13.10;40.60;;;;;;5009797;28;20302;-67
2021/10/02 06:06:46;;;;;;;6.53;5.40;;;13.20;40.30;;;;;;5011142;28;20179;-66
2021/10/02 06:09:12;;;;;;;5.90;5.33;;;13.30;39.10;;;;;;5011469;28;20238;-67
2021/10/02 06:11:37;;;;;;;6.70;4.80;;;13.40;39.20;;;;;;5011420;28;20203;-67
2021/10/02 06:14:03;;;;;;;5.73;4.77;;;13.50;39.20;;;;;;5011646;28;20199;-66
2021/10/02 06:16:29;;;;;;;6.63;5.67;;;13.60;39.10;;;;;;5015115;28;20180;-67
2021/10/02 06:18:54;;;;;;;6.07;5.57;;;13.70;38.70;;;;;;5014188;28;20176;-67
2021/10/02 06:21:20;;;;;;;6.57;5.70;;;13.80;38.40;;;;;;5011314;28;20180;-67
2021/10/02 06:23:46;;;;;;;7.73;6.00;;;13.90;37.50;;;;;;5011227;28;20266;-67
2021/10/02 06:26:11;;;;;;;6.83;5.47;;;14.00;37.10;;;;;;5008354;28;20180;-67
2021/10/02 06:28:38;;;;;;;5.47;4.97;;;14.00;36.40;;;;;;5006915;28;20453;-67
2021/10/02 06:31:03;;;;;;;5.70;4.90;;;14.10;36.70;;;;;;5006679;28;20180;-66
2021/10/02 06:33:30;;;;;;;5.00;4.60;;;14.20;36.00;;;;;;5006739;28;20617;-66
2021/10/02 06:35:55;;;;;;;7.33;5.40;;;14.30;35.90;;;;;;5008316;28;20211;-67
2021/10/02 06:38:22;;;;;;;5.30;4.70;;;14.40;35.30;;;;;;5010764;28;20431;-67
2021/10/02 06:40:48;;;;;;;5.40;4.60;;;14.40;34.90;;;;;;5010285;28;20441;-66
2021/10/02 06:43:14;;;;;;;5.43;4.87;;;14.40;34.90;;;;;;5010111;28;20557;-66
2021/10/02 06:45:40;;;;;;;8.43;5.70;;;14.50;34.90;;;;;;5009991;28;20526;-66
2021/10/02 06:48:06;;;;;;;5.00;4.50;;;14.50;34.90;;;;;;5010249;28;20731;-66
2021/10/02 06:50:35;;;;;;;6.00;4.83;;;14.50;34.50;;;;;;5011319;28;20429;-66
2021/10/02 06:53:01;;;;;;;5.63;4.70;;;14.60;34.50;;;;;;5010066;28;20191;-66
2021/10/02 06:55:27;;;;;;;6.00;4.87;;;14.60;34.10;;;;;;5011410;28;20480;-66
2021/10/02 06:57:53;;;;;;;5.03;4.53;;;14.70;33.40;;;;;;5010732;28;20445;-66
2021/10/02 07:00:19;;;;;;;4.47;4.03;;;14.70;32.40;;;;;;5011516;28;20431;-65
2021/10/02 07:02:45;;;;;;;5.33;4.80;;;14.80;32.10;;;;;;5011104;28;20192;-66
2021/10/02 07:05:13;;;;;;;4.90;4.43;;;14.80;32.30;;;;;;5010714;28;20231;-67
2021/10/02 07:07:40;;;;;;;4.50;4.10;;;14.90;31.70;;;;;;5011222;28;20769;-67
2021/10/02 07:10:07;;;;;;;5.07;4.67;;;14.90;31.20;;;;;;5009855;28;20517;-66
2021/10/02 07:12:33;;;;;;;4.70;4.30;;;15.00;30.80;;;;;;5009104;28;20431;-66
2021/10/02 07:14:59;;;;;;;5.00;4.40;;;15.10;30.20;;;;;;5009946;28;20534;-67
2021/10/02 07:17:24;;;;;;;11.50;4.67;;;15.10;30.30;;;;;;5010194;28;20568;-66
2021/10/02 07:19:50;;;;;;;6.23;3.63;;;15.20;29.90;;;;;;5010290;28;20176;-66
2021/10/02 07:22:16;;;;;;;4.80;3.50;;;15.30;29.50;;;;;;5011184;28;20176;-66
2021/10/02 07:24:42;;;;;;;4.20;3.70;;;15.40;28.50;;;;;;5010700;28;20469;-66
2021/10/02 07:27:08;;;;;;;4.97;4.47;;;15.50;28.30;;;;;;5010434;28;20188;-66
2021/10/02 07:29:33;;;;;;;4.37;4.03;;;15.60;28.50;;;;;;5009834;28;20199;-66
2021/10/02 07:31:59;;;;;;;4.47;4.07;;;15.60;28.30;;;;;;4869136;28;20252;-66
2021/10/02 07:34:25;;;;;;;4.13;3.73;;;15.70;28.40;;;;;;5026991;28;20231;-67
2021/10/02 07:36:51;;;;;;;8.93;3.77;;;15.80;28.10;;;;;;5030732;28;20179;-66
2021/10/02 07:39:16;;;;;;;3.70;3.40;;;15.90;27.90;;;;;;5027501;28;20441;-66
2021/10/02 07:41:46;;;;;;;5.93;4.60;;;15.90;27.90;;;;;;5021453;28;20601;-66
2021/10/02 07:44:13;;;;;;;7.10;4.37;;;15.90;27.00;;;;;;5030249;28;20219;-66
2021/10/02 07:46:50;;;;;;;5.77;4.47;;;15.90;26.60;;;;;;5029435;28;20418;-66
2021/10/02 07:49:17;;;;;;;3.40;3.10;;;15.90;26.60;;;;;;5028722;28;20422;-66
2021/10/02 07:51:44;;;;;;;7.23;3.93;;;15.90;24.80;;;;;;5029608;28;20907;-66
2021/10/02 07:54:10;;;;;;;4.30;4.00;;;15.90;24.90;;;;;;5030495;28;20950;-66
2021/10/02 07:56:36;;;;;;;5.70;3.97;;;15.90;25.30;;;;;;5017782;28;21210;-66
2021/10/02 07:59:06;;;;;;;4.80;3.87;;;16.00;25.20;;;;;;5027432;28;20430;-66
2021/10/02 08:01:33;;;;;;;4.13;3.83;;;16.10;25.90;;;;;;5032049;28;20422;-66
2021/10/02 08:04:05;;;;;;;3.80;3.50;;;16.30;25.90;;;;;;5029150;28;21105;-67
2021/10/02 08:06:32;;;;;;;4.30;3.90;;;16.40;25.60;;;;;;5024495;28;20427;-66
2021/10/02 08:08:59;;;;;;;4.97;4.53;;;16.60;25.00;;;;;;5017496;28;20474;-66
2021/10/02 08:11:26;;;;;;;9.20;5.00;;;16.70;24.30;;;;;;5035404;28;20465;-68
2021/10/02 08:13:53;;;;;;;5.00;4.70;;;16.80;23.70;;;;;;5037007;28;20501;-67
2021/10/02 08:16:19;;;;;;;5.70;5.20;;;17.00;23.20;;;;;;5033848;28;20991;-66
2021/10/02 08:18:48;;;;;;;5.13;4.73;;;17.00;23.40;;;;;;5033188;28;20448;-67
2021/10/02 08:21:14;;;;;;;5.23;4.83;;;17.20;22.90;;;;;;5033944;28;20414;-66
2021/10/02 08:23:41;;;;;;;4.60;4.30;;;17.30;22.40;;;;;;5015126;28;20463;-66
2021/10/02 08:26:08;;;;;;;5.70;5.17;;;17.40;23.00;;;;;;5013685;28;20825;-66
2021/10/02 08:28:34;;;;;;;4.63;4.23;;;17.50;22.70;;;;;;5014637;28;20461;-67
2021/10/02 08:31:02;;;;;;;6.30;5.90;;;17.60;22.60;;;;;;5033320;28;20942;-66
2021/10/02 08:33:28;;;;;;;7.80;5.60;;;17.70;20.80;;;;;;5033298;28;20600;-67
2021/10/02 08:35:53;;;;;;;5.43;5.03;;;17.80;20.90;;;;;;5033566;28;20826;-66
2021/10/02 08:38:19;;;;;;;6.67;6.17;;;17.80;21.20;;;;;;5034148;28;20229;-67
2021/10/02 08:40:45;;;;;;;5.10;4.73;;;17.90;21.50;;;;;;5034413;28;20252;-67
2021/10/02 08:43:13;;;;;;;5.00;4.60;;;17.90;22.10;;;;;;5034745;28;20203;-66
2021/10/02 08:45:39;;;;;;;7.90;5.43;;;18.00;22.40;;;;;;5033824;28;20425;-67
2021/10/02 08:48:11;;;;;;;5.10;4.80;;;18.10;23.50;;;;;;5034119;28;20429;-67
2021/10/02 08:50:40;;;;;;;6.70;6.20;;;18.20;24.00;;;;;;5033052;28;20516;-67
2021/10/02 08:53:06;;;;;;;5.10;4.80;;;18.30;22.80;;;;;;5034021;28;20418;-67
2021/10/02 08:55:34;;;;;;;6.20;5.60;;;18.40;23.00;;;;;;5034093;28;20939;-67
2021/10/02 08:58:00;;;;;;;5.87;5.47;;;18.50;23.80;;;;;;5031364;28;20422;-67
2021/10/02 09:00:26;;;;;;;8.40;6.43;;;18.60;22.30;;;;;;5033789;28;20444;-66
2021/10/02 09:02:52;;;;;;;7.07;6.37;;;18.70;23.20;;;;;;5031021;28;20434;-66
2021/10/02 09:05:20;;;;;;;6.67;6.13;;;18.80;22.30;;;;;;5031389;28;20192;-66
2021/10/02 09:07:49;;;;;;;8.90;6.77;;;18.90;23.20;;;;;;5031377;28;20405;-66
2021/10/02 09:10:15;;;;;;;5.47;5.17;;;19.00;22.60;;;;;;5030744;28;20429;-66
2021/10/02 09:12:42;;;;;;;5.90;5.40;;;19.10;22.50;;;;;;5031431;28;20426;-66
2021/10/02 09:15:08;;;;;;;7.30;6.63;;;19.10;22.80;;;;;;5031179;28;20672;-66
2021/10/02 09:17:33;;;;;;;6.97;6.37;;;19.20;23.20;;;;;;5031377;28;20457;-66
2021/10/02 09:19:59;;;;;;;6.77;6.27;;;19.30;22.60;;;;;;5030758;28;20598;-66
2021/10/02 09:22:26;;;;;;;6.77;6.37;;;19.40;21.80;;;;;;5029778;28;20663;-66
2021/10/02 09:24:55;;;;;;;8.83;7.03;;;19.50;22.20;;;;;;5030645;28;20522;-66
2021/10/02 09:27:26;;;;;;;9.53;6.27;;;19.50;22.40;;;;;;5028084;28;21053;-66
2021/10/02 09:30:11;;;;;;;7.73;7.03;;;19.60;22.80;;;;;;5017858;28;20423;-67
2021/10/02 09:32:41;;;;;;;6.60;6.20;;;19.70;21.90;;;;;;5012976;28;20407;-66
2021/10/02 09:35:15;;;;;;;6.93;6.43;;;19.70;22.40;;;;;;5029887;28;20442;-66
2021/10/02 09:37:43;;;;;;;8.60;7.20;;;19.80;21.70;;;;;;5030996;28;20968;-66
2021/10/02 09:40:13;;;;;;;6.73;6.13;;;19.80;22.80;;;;;;5030954;28;20525;-66
2021/10/02 09:42:43;;;;;;;7.33;6.73;;;19.90;23.20;;;;;;5022560;28;20470;-66
2021/10/02 09:45:10;;;;;;;7.10;6.60;;;20.00;21.70;;;;;;5029977;28;20852;-65
2021/10/02 09:47:38;;;;;;;6.40;6.10;;;20.00;20.90;;;;;;5031132;28;20935;-66
2021/10/02 09:50:15;;;;;;;6.97;6.57;;;20.00;20.90;;;;;;5031061;28;20421;-66
2021/10/02 09:52:43;;;;;;;7.80;7.30;;;20.10;21.00;;;;;;5030962;28;20422;-66
2021/10/02 09:55:24;;;;;;;8.23;7.73;;;20.10;20.60;;;;;;5030457;28;20442;-66
2021/10/02 09:57:53;;;;;;;9.40;8.40;;;20.00;19.70;;;;;;5031073;28;20438;-66
2021/10/02 10:00:24;;;;;;;7.80;7.20;;;20.10;20.10;;;;;;5030673;28;20480;-66
2021/10/02 10:02:50;;;;;;;7.83;6.90;;;20.20;20.30;;;;;;5030709;28;20505;-66
2021/10/02 10:05:16;;;;;;;12.00;7.53;;;20.30;20.50;;;;;;5029235;28;20600;-66
2021/10/02 10:07:52;;;;;;;9.37;7.10;;;20.40;20.60;;;;;;5047178;28;20857;-67
2021/10/02 10:10:17;;;;;;;7.43;6.93;;;20.50;20.40;;;;;;5049554;28;20302;-66
2021/10/02 10:12:43;;;;;;;8.43;7.73;;;20.50;20.10;;;;;;5037867;28;20418;-67
2021/10/02 10:15:34;;;;;;;7.57;7.03;;;20.50;20.50;;;;;;5036993;28;20191;-67
2021/10/02 10:18:00;;;;;;;8.00;7.43;;;20.60;20.40;;;;;;5032178;28;20239;-66
2021/10/02 10:20:42;;;;;;;8.37;7.77;;;20.60;19.80;;;;;;5036022;28;20444;-66
2021/10/02 10:23:09;;;;;;;8.77;8.07;;;20.70;19.50;;;;;;5036342;28;20511;-67
2021/10/02 10:25:54;;;;;;;8.27;7.60;;;20.70;19.60;;;;;;5035979;28;20488;-67
2021/10/02 10:28:22;;;;;;;7.60;7.20;;;20.80;19.70;;;;;;5016652;28;20426;-66
2021/10/02 10:30:48;;;;;;;8.60;8.10;;;20.80;19.60;;;;;;5030665;28;21036;-67
2021/10/02 10:33:16;;;;;;;8.53;8.03;;;20.80;19.10;;;;;;5056046;28;20413;-65
2021/10/02 10:35:44;;;;;;;8.37;7.90;;;;;;;;;;5053867;28;20510;-67
2021/10/02 10:38:12;;;;;;;7.83;7.37;;;20.90;18.20;;;;;;5035502;28;20438;-67
2021/10/02 10:40:38;;;;;;;9.50;7.80;;;21.00;19.30;;;;;;5035819;28;20552;-67
2021/10/02 10:43:03;;;;;;;8.50;7.90;;;21.00;19.00;;;;;;5036761;28;20986;-67
2021/10/02 10:45:30;;;;;;;9.67;8.77;;;21.10;18.10;;;;;;5036538;28;20410;-66
2021/10/02 10:47:58;;;;;;;8.57;8.07;;;21.10;17.30;;;;;;5036268;28;20182;-68
2021/10/02 10:50:24;;;;;;;8.57;8.17;;;21.20;17.40;;;;;;5035714;28;20463;-69
2021/10/02 10:52:50;;;;;;;9.80;9.10;;;21.30;17.50;;;;;;5035175;28;20424;-67
2021/10/02 10:55:19;;;;;;;9.90;8.97;;;21.30;17.40;;;;;;5035454;28;20434;-66
2021/10/02 10:57:45;;;;;;;10.67;9.00;;;21.40;16.50;;;;;;5035356;28;20199;-66
2021/10/02 11:00:38;;;;;;;9.30;8.80;;;21.50;16.40;;;;;;5034991;28;20437;-66
2021/10/02 11:03:04;;;;;;;9.67;9.17;;;21.70;16.60;;;;;;5034586;28;20213;-67
2021/10/02 11:05:36;;;;;;;9.50;9.00;;;21.70;16.20;;;;;;5033476;28;20452;-68
2021/10/02 11:08:13;;;;;;;9.33;8.83;;;21.80;15.40;;;;;;5034770;28;20416;-68
2021/10/02 11:10:42;;;;;;;8.77;8.37;;;21.80;16.50;;;;;;5034654;28;20410;-68
2021/10/02 11:13:14;;;;;;;10.00;9.50;;;;;;;;;;5034437;28;20436;-68
2021/10/02 11:15:41;;;;;;;10.27;9.50;;;21.90;15.50;;;;;;5036363;28;20410;-68
2021/10/02 11:18:38;;;;;;;10.03;9.53;;;21.90;15.70;;;;;;5035733;28;20421;-68
2021/10/02 11:21:04;;;;;;;9.93;9.37;;;22.10;15.60;;;;;;5033018;28;20511;-68
2021/10/02 11:23:39;;;;;;;10.87;10.30;;;22.10;14.60;;;;;;5034279;28;20501;-67
2021/10/02 11:26:25;;;;;;;11.47;10.77;;;22.20;14.60;;;;;;5033367;28;20182;-67
2021/10/02 11:28:57;;;;;;;11.67;10.97;;;22.20;14.70;;;;;;5028576;28;20459;-67
2021/10/02 11:31:24;;;;;;;10.97;10.57;;;;;;;;;;5013511;28;20408;-67
2021/10/02 11:33:51;;;;;;;11.60;11.00;;;;;;;;;;5014220;28;20446;-67
2021/10/02 11:36:30;;;;;;;11.10;10.60;;;22.20;13.70;;;;;;5020898;28;20410;-67
2021/10/02 11:39:32;;;;;;;11.53;10.80;;;22.10;14.10;;;;;;5034676;28;20918;-67
2021/10/02 11:42:12;;;;;;;12.63;11.67;;;22.10;13.50;;;;;;5035008;28;20974;-67
2021/10/02 11:44:49;;;;;;;11.73;11.13;;;22.20;13.60;;;;;;5035123;28;20489;-67
2021/10/02 11:47:34;;;;;;;12.60;11.80;;;22.30;13.60;;;;;;5034774;28;20778;-66
2021/10/02 11:50:24;;;;;;;12.00;11.20;;;22.40;12.80;;;;;;5034469;28;20406;-66
2021/10/02 11:52:51;;;;;;;12.77;11.70;;;22.50;12.90;;;;;;5026646;28;20442;-66
2021/10/02 11:55:35;;;;;;;12.13;11.53;;;;;;;;;;5032754;28;20430;-66
2021/10/02 11:58:07;;;;;;;11.90;11.30;;;;;;;;;;5034219;28;20441;-66
2021/10/02 12:00:40;;;;;;;12.70;12.10;;;;;;;;;;5033943;28;20402;-66
2021/10/02 12:03:06;;;;;;;13.17;12.20;;;22.70;11.30;;;;;;5034199;28;20660;-66
2021/10/02 12:05:33;;;;;;;12.53;11.90;;;22.70;11.90;;;;;;5034050;28;20467;-66
2021/10/02 12:07:59;;;;;;;12.30;11.80;;;22.70;11.50;;;;;;5033805;28;20430;-66
2021/10/02 12:10:25;;;;;;;13.77;12.97;;;22.70;13.00;;;;;;5034540;28;20417;-66
2021/10/02 12:12:50;;;;;;;12.47;11.97;;;22.70;12.60;;;;;;5034239;28;20633;-66
2021/10/02 12:15:30;;;;;;;11.90;11.40;;;22.80;12.50;;;;;;5034411;28;20513;-66
2021/10/02 12:17:55;;;;;;;12.57;11.97;;;22.80;12.40;;;;;;5033695;28;20202;-66
2021/10/02 12:20:34;;;;;;;12.47;11.87;;;22.80;12.80;;;;;;5033907;28;20907;-66
2021/10/02 12:23:05;;;;;;;12.83;12.20;;;22.90;12.70;;;;;;5034512;28;20564;-66
2021/10/02 12:25:30;;;;;;;12.80;12.20;;;22.80;12.40;;;;;;5033611;28;20436;-66
2021/10/02 12:27:56;;;;;;;13.67;12.90;;;22.80;12.10;;;;;;5033972;28;21128;-66
2021/10/02 12:30:22;;;;;;;14.20;13.40;;;22.90;12.80;;;;;;5032291;28;20222;-66
2021/10/02 12:32:59;;;;;;;13.97;13.30;;;22.90;36.20;;;;;;5032689;28;20180;-66
2021/10/02 12:35:25;;;;;;;14.40;13.70;;;;;;;;;;5032954;28;20191;-66
2021/10/02 12:37:51;;;;;;;12.40;11.90;;;22.70;11.90;;;;;;5033215;28;20922;-66
2021/10/02 12:40:17;;;;;;;13.00;12.40;;;22.70;12.50;;;;;;5033764;28;20418;-66
2021/10/02 12:42:56;;;;;;;14.17;13.37;;;22.60;12.40;;;;;;5033539;28;20770;-66
2021/10/02 12:45:33;;;;;;;13.10;12.50;;;22.70;13.20;;;;;;5034842;28;20532;-66
2021/10/02 12:48:04;;;;;;;14.20;13.53;;;22.80;13.10;;;;;;5038083;28;20390;-67
2021/10/02 12:50:38;;;;;;;13.63;13.00;;;22.90;13.40;;;;;;5029487;28;20457;-66
2021/10/02 12:53:04;;;;;;;13.50;12.90;;;23.00;13.20;;;;;;5030447;28;20425;-66
2021/10/02 12:55:31;;;;;;;14.70;13.90;;;23.00;13.00;;;;;;5029075;28;20832;-66
2021/10/02 12:57:56;;;;;;;14.13;13.40;;;23.00;13.30;;;;;;5027509;28;20444;-66
2021/10/02 13:00:31;;;;;;;13.30;12.80;;;22.90;13.10;;;;;;5029401;28;20426;-67
2021/10/02 13:03:03;;;;;;;13.03;12.43;;;22.90;12.70;;;;;;5024535;28;20280;-67
2021/10/02 13:05:34;;;;;;;13.40;12.73;;;23.00;13.20;;;;;;5029982;28;20418;-67
2021/10/02 13:08:03;;;;;;;13.80;13.00;;;23.00;13.20;;;;;;5032474;28;20449;-67
2021/10/02 13:10:31;;;;;;;14.27;13.67;;;23.10;12.50;;;;;;5032880;28;20418;-67
2021/10/02 13:13:05;;;;;;;14.27;13.17;;;23.20;12.50;;;;;;5032607;28;20463;-67
2021/10/02 13:15:39;;;;;;;13.07;12.57;;;23.30;13.00;;;;;;5033055;28;20968;-66
2021/10/02 13:18:07;;;;;;;13.63;13.03;;;23.40;12.70;;;;;;5033441;28;20486;-67
2021/10/02 13:20:40;;;;;;;13.57;12.97;;;23.50;11.30;;;;;;5032379;28;20410;-67
2021/10/02 13:23:11;;;;;;;14.83;13.97;;;23.40;11.50;;;;;;5032435;28;20468;-67
2021/10/02 13:26:00;;;;;;;14.47;13.87;;;23.40;11.20;;;;;;5032189;28;20399;-67
2021/10/02 13:28:33;;;;;;;14.33;13.50;;;23.40;11.10;;;;;;5027458;28;20791;-66
2021/10/02 13:31:17;;;;;;;14.50;13.80;;;23.40;11.00;;;;;;5027258;28;20426;-66
2021/10/02 13:33:46;;;;;;;14.17;13.57;;;23.40;11.50;;;;;;5027081;28;20462;-67
2021/10/02 13:36:31;;;;;;;14.43;13.73;;;23.50;10.70;;;;;;5027352;28;20418;-67
2021/10/02 13:39:29;;;;;;;14.17;13.57;;;23.40;10.90;;;;;;5024592;28;20447;-66
2021/10/02 13:42:06;;;;;;;15.07;14.40;;;23.40;12.30;;;;;;4998792;28;20438;-66
2021/10/02 13:44:32;;;;;;;15.13;14.40;;;23.40;12.50;;;;;;5030267;28;20481;-66
2021/10/02 13:47:01;;;;;;;14.17;13.47;;;23.30;11.90;;;;;;5031333;28;20468;-67
2021/10/02 13:49:28;;;;;;;15.47;14.80;;;23.30;11.40;;;;;;5031354;28;20425;-67